createdAt,value
2023-04-24T00:01:44.445Z,9.10
2023-04-24T00:04:18.249Z,9.00
2023-04-24T00:06:51.228Z,9.00
2023-04-24T00:09:23.135Z,9.00
2023-04-24T00:11:53.428Z,9.00
2023-04-24T00:14:23.896Z,8.90
2023-04-24T00:16:54.284Z,8.90
2023-04-24T00:19:24.655Z,8.90
2023-04-24T00:21:55.607Z,8.90
2023-04-24T00:24:27.502Z,8.90
2023-04-24T00:26:57.954Z,8.90
2023-04-24T00:29:28.120Z,8.90
2023-04-24T00:31:58.517Z,8.90
2023-04-24T00:34:28.952Z,8.90
2023-04-24T00:36:59.408Z,8.90
2023-04-24T00:39:31.905Z,8.90
2023-04-24T00:42:04.267Z,8.90
2023-04-24T00:44:34.962Z,8.90
2023-04-24T00:47:06.485Z,8.80
2023-04-24T00:49:37.086Z,8.80
2023-04-24T00:52:09.381Z,8.80
2023-04-24T00:54:41.391Z,8.80
2023-04-24T00:57:12.203Z,8.80
2023-04-24T00:59:43.209Z,8.70
2023-04-24T01:02:14.671Z,8.70
2023-04-24T01:04:46.642Z,8.70
2023-04-24T01:07:21.136Z,8.70
2023-04-24T01:09:53.827Z,8.70
2023-04-24T01:12:24.107Z,8.80
2023-04-24T01:14:56.413Z,8.80
2023-04-24T01:17:26.862Z,8.80
2023-04-24T01:19:58.515Z,8.80
2023-04-24T01:22:30.636Z,8.80
2023-04-24T01:25:01.599Z,8.70
2023-04-24T01:27:32.226Z,8.80
2023-04-24T01:30:03.097Z,8.80
2023-04-24T01:32:33.753Z,8.80
2023-04-24T01:35:04.865Z,8.80
2023-04-24T01:37:38.923Z,8.80
2023-04-24T01:40:10.572Z,8.80
2023-04-24T01:42:41.398Z,8.80
2023-04-24T01:45:14.684Z,8.80
2023-04-24T01:47:45.225Z,8.90
2023-04-24T01:50:15.542Z,8.90
2023-04-24T01:52:47.937Z,8.80
2023-04-24T01:55:18.297Z,8.80
2023-04-24T01:57:48.944Z,8.80
2023-04-24T02:00:19.560Z,8.80
2023-04-24T02:02:50.469Z,8.80
2023-04-24T02:05:21.274Z,8.80
2023-04-24T02:07:53.148Z,8.80
2023-04-24T02:10:24.842Z,8.70
2023-04-24T02:12:55.262Z,8.70
2023-04-24T02:15:26.317Z,8.60
2023-04-24T02:17:56.655Z,8.60
2023-04-24T02:20:27.486Z,8.60
2023-04-24T02:22:59.555Z,8.50
2023-04-24T02:25:29.966Z,8.50
2023-04-24T02:28:00.184Z,8.50
2023-04-24T02:30:30.504Z,8.50
2023-04-24T02:33:00.753Z,8.40
2023-04-24T02:35:31.466Z,8.40
2023-04-24T02:38:03.646Z,8.40
2023-04-24T02:40:34.460Z,8.40
2023-04-24T02:43:04.675Z,8.30
2023-04-24T02:45:36.458Z,8.30
2023-04-24T02:48:06.836Z,8.30
2023-04-24T02:50:37.496Z,8.20
2023-04-24T02:53:09.407Z,8.20
2023-04-24T02:55:39.968Z,8.20
2023-04-24T02:58:10.286Z,8.10
2023-04-24T03:00:40.671Z,8.20
2023-04-24T03:03:11.070Z,8.20
2023-04-24T03:05:41.716Z,8.20
2023-04-24T03:08:13.706Z,8.20
2023-04-24T03:10:46.924Z,8.20
2023-04-24T03:13:19.162Z,8.10
2023-04-24T03:15:49.548Z,8.20
2023-04-24T03:18:20.256Z,8.10
2023-04-24T03:20:51.008Z,8.10
2023-04-24T03:23:23.037Z,8.10
2023-04-24T03:25:53.231Z,8.10
2023-04-24T03:28:23.475Z,8.10
2023-04-24T03:30:53.790Z,8.10
2023-04-24T03:33:24.200Z,8.00
2023-04-24T03:35:54.384Z,8.00
2023-04-24T03:38:26.261Z,8.00
2023-04-24T03:40:57.342Z,8.00
2023-04-24T03:43:28.952Z,7.90
2023-04-24T03:45:59.230Z,7.80
2023-04-24T03:48:29.496Z,7.80
2023-04-24T03:51:00.560Z,7.70
2023-04-24T03:53:32.457Z,7.70
2023-04-24T03:56:02.818Z,7.60
2023-04-24T03:58:33.366Z,7.60
2023-04-24T04:01:04.711Z,7.60
2023-04-24T04:03:35.119Z,7.50
2023-04-24T04:06:06.192Z,7.40
2023-04-24T04:08:38.319Z,7.40
2023-04-24T04:11:08.670Z,7.40
2023-04-24T04:13:39.005Z,7.30
2023-04-24T04:16:09.837Z,7.30
2023-04-24T04:18:40.063Z,7.20
2023-04-24T04:21:10.377Z,7.20
2023-04-24T04:23:42.662Z,7.10
2023-04-24T04:26:14.223Z,7.10
2023-04-24T04:28:46.201Z,7.10
2023-04-24T04:31:16.940Z,7.00
2023-04-24T04:33:47.678Z,7.00
2023-04-24T04:36:19.110Z,7.00
2023-04-24T04:38:51.348Z,6.90
2023-04-24T04:41:22.009Z,6.90
2023-04-24T04:43:52.393Z,6.90
2023-04-24T04:46:23.469Z,6.90
2023-04-24T04:48:53.768Z,6.90
2023-04-24T04:51:24.096Z,6.90
2023-04-24T04:53:56.027Z,6.90
2023-04-24T04:56:26.399Z,6.90
2023-04-24T04:58:56.706Z,6.90
2023-04-24T05:01:29.471Z,6.90
2023-04-24T05:03:59.994Z,6.80
2023-04-24T05:06:30.339Z,6.80
2023-04-24T05:09:02.144Z,6.70
2023-04-24T05:11:32.769Z,6.70
2023-04-24T05:14:03.033Z,6.70
2023-04-24T05:16:33.890Z,6.70
2023-04-24T05:19:04.268Z,6.70
2023-04-24T05:21:34.649Z,6.70
2023-04-24T05:24:06.783Z,6.70
2023-04-24T05:26:37.388Z,6.70
2023-04-24T05:29:07.666Z,6.70
2023-04-24T05:31:38.146Z,6.60
2023-04-24T05:34:08.451Z,6.70
2023-04-24T05:36:38.995Z,6.70
2023-04-24T05:39:11.475Z,6.70
2023-04-24T05:41:41.701Z,6.70
2023-04-24T05:44:12.088Z,6.70
2023-04-24T05:46:42.438Z,6.70
2023-04-24T05:49:13.134Z,6.70
2023-04-24T05:51:43.715Z,6.70
2023-04-24T05:54:15.792Z,6.60
2023-04-24T05:56:46.297Z,6.60
2023-04-24T05:59:16.727Z,6.60
2023-04-24T06:01:47.015Z,6.50
2023-04-24T06:04:17.462Z,6.50
2023-04-24T06:06:47.899Z,6.50
2023-04-24T06:09:20.173Z,6.50
2023-04-24T06:11:50.559Z,6.60
2023-04-24T06:14:20.740Z,6.60
2023-04-24T06:16:51.313Z,6.60
2023-04-24T06:19:22.443Z,6.70
2023-04-24T06:21:52.702Z,6.70
2023-04-24T06:24:24.508Z,6.80
2023-04-24T06:26:55.136Z,6.80
2023-04-24T06:29:25.408Z,6.80
2023-04-24T06:31:55.721Z,6.80
2023-04-24T06:34:25.943Z,6.80
2023-04-24T06:36:56.541Z,6.80
2023-04-24T06:39:29.339Z,6.80
2023-04-24T06:41:59.852Z,6.80
2023-04-24T06:44:30.339Z,6.80
2023-04-24T06:47:00.847Z,6.70
2023-04-24T06:49:31.162Z,6.70
2023-04-24T06:52:01.713Z,6.60
2023-04-24T06:54:33.901Z,6.60
2023-04-24T06:57:04.922Z,6.60
2023-04-24T06:59:35.294Z,6.60
2023-04-24T07:02:05.824Z,6.50
2023-04-24T07:04:36.364Z,6.50
2023-04-24T07:07:08.340Z,6.40
2023-04-24T07:09:42.838Z,6.40
2023-04-24T07:12:13.785Z,6.40
2023-04-24T07:14:44.367Z,6.40
2023-04-24T07:17:15.146Z,6.30
2023-04-24T07:19:45.818Z,6.30
2023-04-24T07:22:18.511Z,6.30
2023-04-24T07:24:50.425Z,6.30
2023-04-24T07:27:21.173Z,6.30
2023-04-24T07:29:51.377Z,6.20
2023-04-24T07:32:21.870Z,6.20
2023-04-24T07:34:52.054Z,6.10
2023-04-24T07:37:22.522Z,6.10
2023-04-24T07:39:55.009Z,6.10
2023-04-24T07:42:25.689Z,6.10
2023-04-24T07:44:55.893Z,6.10
2023-04-24T07:47:26.505Z,6.10
2023-04-24T07:49:57.011Z,6.10
2023-04-24T07:52:27.825Z,6.20
2023-04-24T07:55:02.072Z,6.20
2023-04-24T07:57:32.560Z,6.30
2023-04-24T08:00:02.759Z,6.20
2023-04-24T08:02:33.240Z,6.30
2023-04-24T08:05:04.854Z,6.30
2023-04-24T08:07:37.007Z,6.30
2023-04-24T08:10:10.355Z,6.40
2023-04-24T08:12:42.121Z,6.40
2023-04-24T08:15:13.330Z,6.40
2023-04-24T08:17:43.637Z,6.30
2023-04-24T08:20:15.357Z,6.30
2023-04-24T08:22:49.031Z,6.30
2023-04-24T08:25:21.582Z,6.30
2023-04-24T08:27:51.847Z,6.20
2023-04-24T08:30:22.592Z,6.10
2023-04-24T08:32:52.995Z,6.00
2023-04-24T08:35:24.606Z,6.00
2023-04-24T08:37:55.752Z,5.90
2023-04-24T08:40:32.657Z,5.80
2023-04-24T08:43:03.695Z,5.80
2023-04-24T08:45:34.018Z,5.70
2023-04-24T08:48:04.947Z,5.50
2023-04-24T08:50:36.114Z,5.50
2023-04-24T08:53:07.003Z,5.40
2023-04-24T08:55:40.539Z,5.30
2023-04-24T08:58:11.411Z,5.30
2023-04-24T09:00:48.277Z,5.20
2023-04-24T09:03:20.298Z,5.20
2023-04-24T09:05:52.089Z,5.10
2023-04-24T09:08:22.871Z,5.00
2023-04-24T09:10:54.919Z,4.90
2023-04-24T09:13:25.419Z,4.80
2023-04-24T09:15:56.148Z,4.70
2023-04-24T09:18:27.002Z,4.60
2023-04-24T09:21:05.395Z,4.40
2023-04-24T09:23:36.204Z,4.40
2023-04-24T09:26:08.223Z,4.30
2023-04-24T09:28:40.766Z,4.30
2023-04-24T09:31:12.927Z,4.30
2023-04-24T09:33:43.263Z,4.20
2023-04-24T09:36:13.438Z,4.20
2023-04-24T09:38:43.858Z,4.20
2023-04-24T09:41:18.512Z,4.30
2023-04-24T09:43:48.983Z,4.20
2023-04-24T09:46:23.143Z,4.30
2023-04-24T09:48:53.451Z,4.50
2023-04-24T09:51:38.988Z,4.50
2023-04-24T09:54:19.100Z,4.50
2023-04-24T09:56:52.672Z,4.70
2023-04-24T09:59:24.031Z,4.80
2023-04-24T10:01:54.731Z,4.90
2023-04-24T10:04:26.582Z,4.90
2023-04-24T10:06:58.206Z,5.00
2023-04-24T10:09:29.594Z,5.10
2023-04-24T10:12:01.772Z,5.20
2023-04-24T10:14:32.980Z,5.30
2023-04-24T10:17:03.565Z,5.40
2023-04-24T10:19:34.564Z,5.40
2023-04-24T10:22:07.611Z,5.50
2023-04-24T10:24:40.107Z,5.50
2023-04-24T10:27:12.631Z,5.60
2023-04-24T10:29:45.182Z,5.70
2023-04-24T10:32:15.625Z,5.70
2023-04-24T10:34:46.155Z,5.80
2023-04-24T10:37:16.993Z,5.80
2023-04-24T10:39:52.765Z,5.90
2023-04-24T10:42:25.231Z,5.90
2023-04-24T10:44:56.121Z,6.00
2023-04-24T10:47:26.859Z,6.00
2023-04-24T10:49:57.225Z,6.10
2023-04-24T10:52:46.908Z,6.10
2023-04-24T10:55:18.040Z,6.10
2023-04-24T10:58:07.657Z,6.20
2023-04-24T11:00:41.133Z,6.20
2023-04-24T11:03:26.763Z,6.30
2023-04-24T11:06:00.858Z,6.30
2023-04-24T11:08:33.069Z,6.30
2023-04-24T11:11:11.603Z,6.30
2023-04-24T11:14:13.351Z,6.30
2023-04-24T11:16:48.761Z,6.30
2023-04-24T11:19:30.062Z,6.40
2023-04-24T11:22:03.615Z,6.40
2023-04-24T11:24:42.350Z,6.40
2023-04-24T11:27:17.373Z,6.40
2023-04-24T11:29:51.669Z,6.40
2023-04-24T11:32:27.550Z,6.40
2023-04-24T11:34:59.150Z,6.50
2023-04-24T11:37:31.708Z,6.50
2023-04-24T11:40:03.171Z,6.60
2023-04-24T11:42:38.398Z,6.60
2023-04-24T11:45:15.234Z,6.70
2023-04-24T11:47:46.042Z,6.70
2023-04-24T11:50:17.773Z,6.80
2023-04-24T11:52:49.064Z,6.80
2023-04-24T11:55:30.347Z,6.80
2023-04-24T11:58:03.055Z,6.80
2023-04-24T12:00:37.184Z,6.90
2023-04-24T12:03:10.258Z,6.90
2023-04-24T12:05:41.455Z,6.90
2023-04-24T12:08:12.122Z,6.80
2023-04-24T12:10:42.436Z,6.80
2023-04-24T12:13:14.412Z,6.80
2023-04-24T12:15:46.343Z,6.70
2023-04-24T12:18:18.720Z,6.70
2023-04-24T12:20:49.101Z,6.70
2023-04-24T12:23:20.983Z,6.70
2023-04-24T12:25:54.880Z,6.70
2023-04-24T12:28:25.353Z,6.60
2023-04-24T12:30:57.286Z,6.60
2023-04-24T12:33:27.610Z,6.60
2023-04-24T12:35:58.278Z,6.60
2023-04-24T12:38:31.228Z,6.60
2023-04-24T12:41:08.902Z,6.60
2023-04-24T12:43:40.698Z,6.50
2023-04-24T12:46:12.925Z,6.50
2023-04-24T12:48:43.892Z,6.50
2023-04-24T12:51:14.634Z,6.50
2023-04-24T12:53:44.865Z,6.40
2023-04-24T12:56:15.156Z,6.40
2023-04-24T12:58:45.544Z,6.40
2023-04-24T13:01:17.434Z,6.30
2023-04-24T13:03:48.482Z,6.30
2023-04-24T13:06:19.059Z,6.30
2023-04-24T13:08:50.119Z,6.30
2023-04-24T13:11:20.651Z,6.30
2023-04-24T13:13:51.602Z,6.20
2023-04-24T13:16:24.920Z,6.20
2023-04-24T13:18:55.201Z,6.20
2023-04-24T13:21:25.427Z,6.30
2023-04-24T13:23:55.740Z,6.30
2023-04-24T13:26:25.995Z,6.30
2023-04-24T13:28:56.229Z,6.30
2023-04-24T13:31:28.606Z,6.30
2023-04-24T13:33:59.198Z,6.30
2023-04-24T13:36:29.369Z,6.30
2023-04-24T13:38:59.541Z,6.30
2023-04-24T13:41:30.057Z,6.20
2023-04-24T13:44:00.424Z,6.20
2023-04-24T13:46:32.404Z,6.20
2023-04-24T13:49:03.226Z,6.30
2023-04-24T13:51:33.813Z,6.40
2023-04-24T13:54:04.274Z,6.40
2023-04-24T13:56:34.637Z,6.40
2023-04-24T13:59:05.173Z,6.40
2023-04-24T14:01:37.163Z,6.40
2023-04-24T14:04:07.643Z,6.40
2023-04-24T14:06:38.147Z,6.50
2023-04-24T14:09:08.944Z,6.50
2023-04-24T14:11:39.369Z,6.50
2023-04-24T14:14:10.014Z,6.50
2023-04-24T14:16:42.100Z,6.50
2023-04-24T14:19:12.415Z,6.50
2023-04-24T14:21:42.728Z,6.40
2023-04-24T14:24:13.131Z,6.40
2023-04-24T14:26:45.579Z,6.40
2023-04-24T14:29:15.909Z,6.40
2023-04-24T14:31:48.039Z,6.40
2023-04-24T14:34:18.715Z,6.40
2023-04-24T14:36:49.008Z,6.50
2023-04-24T14:39:20.030Z,6.50
2023-04-24T14:41:50.216Z,6.50
2023-04-24T14:44:22.728Z,6.50
2023-04-24T14:46:54.777Z,6.50
2023-04-24T14:49:27.247Z,6.40
2023-04-24T14:51:57.614Z,6.40
2023-04-24T14:54:27.976Z,6.40
2023-04-24T14:56:59.447Z,6.50
2023-04-24T14:59:30.565Z,6.40
2023-04-24T15:02:15.086Z,6.40
2023-04-24T15:04:46.837Z,6.50
2023-04-24T15:07:17.329Z,6.40
2023-04-24T15:09:48.817Z,6.40
2023-04-24T15:12:19.421Z,6.50
2023-04-24T15:14:49.686Z,6.50
2023-04-24T15:17:21.746Z,6.60
2023-04-24T15:19:52.009Z,6.60
2023-04-24T15:22:22.462Z,6.60
2023-04-24T15:24:52.829Z,6.60
2023-04-24T15:27:23.422Z,6.60
2023-04-24T15:29:55.218Z,6.50
2023-04-24T15:32:27.141Z,6.60
2023-04-24T15:35:07.737Z,6.60
2023-04-24T15:37:39.082Z,6.60
2023-04-24T15:40:10.869Z,6.60
2023-04-24T15:42:41.598Z,6.70
2023-04-24T15:45:13.448Z,6.60
2023-04-24T15:47:47.763Z,6.70
2023-04-24T15:50:20.107Z,6.80
2023-04-24T15:52:50.368Z,6.90
2023-04-24T15:55:20.981Z,6.80
2023-04-24T15:57:51.261Z,6.90
2023-04-24T16:00:22.231Z,6.90
2023-04-24T16:02:54.164Z,6.90
2023-04-24T16:05:25.327Z,6.90
2023-04-24T16:07:55.490Z,7.00
2023-04-24T16:10:25.873Z,7.10
2023-04-24T16:12:57.045Z,7.10
2023-04-24T16:15:27.531Z,7.10
2023-04-24T16:17:59.851Z,7.10
2023-04-24T16:20:30.163Z,7.10
2023-04-24T16:23:00.488Z,7.10
2023-04-24T16:25:31.153Z,7.10
2023-04-24T16:28:01.465Z,7.10
2023-04-24T16:30:31.811Z,7.10
2023-04-24T16:33:08.154Z,7.10
2023-04-24T16:35:38.664Z,7.10
2023-04-24T16:38:08.758Z,7.20
2023-04-24T16:40:39.447Z,7.20
2023-04-24T16:43:10.150Z,7.30
2023-04-24T16:45:40.519Z,7.40
2023-04-24T16:48:12.689Z,7.50
2023-04-24T16:50:43.166Z,7.50
2023-04-24T16:53:13.834Z,7.60
2023-04-24T16:55:44.591Z,7.60
2023-04-24T16:58:14.783Z,7.50
2023-04-24T17:00:45.422Z,7.50
2023-04-24T17:03:18.322Z,7.40
2023-04-24T17:05:48.971Z,7.30
2023-04-24T17:08:20.063Z,7.20
2023-04-24T17:10:50.330Z,7.10
2023-04-24T17:13:20.714Z,7.10
2023-04-24T17:15:51.082Z,7.10
2023-04-24T17:18:25.669Z,7.00
2023-04-24T17:20:56.794Z,6.90
2023-04-24T17:23:27.055Z,6.90
2023-04-24T17:25:57.329Z,6.90
2023-04-24T17:28:30.638Z,7.00
2023-04-24T17:31:01.635Z,7.20
2023-04-24T17:33:34.173Z,7.30
2023-04-24T17:36:04.863Z,7.30
2023-04-24T17:38:35.437Z,7.30
2023-04-24T17:41:06.117Z,7.30
2023-04-24T17:43:36.362Z,7.30
2023-04-24T17:46:08.102Z,7.30
2023-04-24T17:48:40.797Z,7.20
2023-04-24T17:51:11.068Z,7.30
2023-04-24T17:53:42.390Z,7.40
2023-04-24T17:56:12.866Z,7.50
2023-04-24T17:58:44.219Z,7.60
2023-04-24T18:01:14.659Z,7.60
2023-04-24T18:03:47.034Z,7.70
2023-04-24T18:06:19.435Z,8.00
2023-04-24T18:08:50.064Z,8.10
2023-04-24T18:11:20.745Z,8.20
2023-04-24T18:13:51.527Z,8.00
2023-04-24T18:16:23.158Z,8.10
2023-04-24T18:18:56.983Z,8.10
2023-04-24T18:21:27.469Z,8.30
2023-04-24T18:24:00.951Z,8.40
2023-04-24T18:26:31.844Z,8.50
2023-04-24T18:29:01.966Z,8.60
2023-04-24T18:31:33.303Z,8.80
2023-04-24T18:34:05.361Z,8.70
2023-04-24T18:36:35.676Z,8.80
2023-04-24T18:39:06.279Z,8.80
2023-04-24T18:41:37.221Z,8.80
2023-04-24T18:44:07.594Z,8.90
2023-04-24T18:46:41.993Z,9.20
2023-04-24T18:49:14.010Z,9.20
2023-04-24T18:51:53.938Z,9.10
2023-04-24T18:54:25.235Z,9.20
2023-04-24T18:56:56.106Z,9.20
2023-04-24T18:59:27.718Z,9.50
2023-04-24T19:01:58.089Z,9.70
2023-04-24T19:04:31.244Z,9.70
2023-04-24T19:07:01.667Z,9.50
2023-04-24T19:09:31.939Z,9.20
2023-04-24T19:12:02.750Z,9.00
2023-04-24T19:14:33.133Z,8.80
2023-04-24T19:17:03.989Z,8.60
2023-04-24T19:19:36.060Z,8.30
2023-04-24T19:22:08.170Z,8.20
2023-04-24T19:24:38.616Z,8.00
2023-04-24T19:27:08.953Z,7.90
2023-04-24T19:29:39.265Z,7.70
2023-04-24T19:32:09.682Z,7.70
2023-04-24T19:34:42.098Z,7.70
2023-04-24T19:37:13.270Z,7.60
2023-04-24T19:39:43.692Z,7.70
2023-04-24T19:42:14.720Z,7.80
2023-04-24T19:44:45.369Z,7.80
2023-04-24T19:47:16.611Z,7.80
2023-04-24T19:49:48.702Z,7.80
2023-04-24T19:52:19.290Z,7.90
2023-04-24T19:54:49.437Z,7.90
2023-04-24T19:57:19.899Z,7.90
2023-04-24T19:59:50.372Z,7.90
2023-04-24T20:02:21.270Z,8.00
2023-04-24T20:04:53.562Z,8.00
2023-04-24T20:07:24.335Z,8.00
2023-04-24T20:09:55.226Z,8.10
2023-04-24T20:12:25.637Z,8.20
2023-04-24T20:14:56.089Z,8.20
2023-04-24T20:17:26.428Z,8.30
2023-04-24T20:19:58.291Z,8.40
2023-04-24T20:22:28.588Z,8.50
2023-04-24T20:24:58.843Z,8.60
2023-04-24T20:27:30.939Z,8.70
2023-04-24T20:30:01.713Z,8.70
2023-04-24T20:32:32.122Z,8.80
2023-04-24T20:35:04.244Z,8.90
2023-04-24T20:37:34.798Z,9.00
2023-04-24T20:40:06.472Z,9.20
2023-04-24T20:42:37.441Z,9.20
2023-04-24T20:45:08.835Z,9.20
2023-04-24T20:47:39.055Z,9.40
2023-04-24T20:50:12.478Z,9.50
2023-04-24T20:52:43.066Z,9.50
2023-04-24T20:55:13.561Z,9.60
2023-04-24T20:57:44.190Z,9.70
2023-04-24T21:00:15.740Z,9.80
2023-04-24T21:02:46.078Z,9.80
2023-04-24T21:05:18.110Z,10.00
2023-04-24T21:07:48.588Z,10.40
2023-04-24T21:10:20.239Z,10.70
2023-04-24T21:12:50.498Z,10.60
2023-04-24T21:15:20.966Z,10.60
2023-04-24T21:17:51.482Z,10.50
2023-04-24T21:20:23.590Z,10.50
2023-04-24T21:22:53.840Z,10.50
2023-04-24T21:25:24.104Z,10.40
2023-04-24T21:27:54.564Z,10.30
2023-04-24T21:30:34.086Z,10.20
2023-04-24T21:33:04.587Z,10.10
2023-04-24T21:35:37.424Z,9.90
2023-04-24T21:38:07.820Z,9.80
2023-04-24T21:40:38.917Z,9.70
2023-04-24T21:43:10.489Z,9.70
2023-04-24T21:45:40.719Z,9.70
2023-04-24T21:48:11.426Z,9.70
2023-04-24T21:50:43.305Z,9.70
2023-04-24T21:53:13.757Z,9.70
2023-04-24T21:55:44.369Z,9.80
2023-04-24T21:58:15.155Z,9.80
2023-04-24T22:00:45.886Z,9.90
2023-04-24T22:03:16.442Z,9.70
2023-04-24T22:05:49.430Z,9.70
2023-04-24T22:08:20.934Z,9.60
2023-04-24T22:10:52.199Z,9.50
2023-04-24T22:13:22.701Z,9.40
2023-04-24T22:15:53.300Z,9.30
2023-04-24T22:18:30.553Z,9.20
2023-04-24T22:21:09.124Z,9.20
2023-04-24T22:23:39.628Z,9.10
2023-04-24T22:26:09.977Z,9.10
2023-04-24T22:28:40.422Z,9.10
2023-04-24T22:31:10.962Z,9.00
2023-04-24T22:33:41.450Z,9.00
2023-04-24T22:36:22.147Z,8.90
2023-04-24T22:38:52.582Z,9.00
2023-04-24T22:41:23.938Z,8.90
2023-04-24T22:43:54.845Z,8.70
2023-04-24T22:46:26.288Z,8.60
2023-04-24T22:49:00.698Z,8.50
2023-04-24T22:51:34.190Z,8.40
2023-04-24T22:54:06.535Z,8.30
2023-04-24T22:56:38.487Z,8.20
2023-04-24T22:59:08.891Z,8.20
2023-04-24T23:01:39.059Z,8.10
2023-04-24T23:04:09.563Z,8.10
2023-04-24T23:06:41.966Z,8.10
2023-04-24T23:09:12.370Z,8.10
2023-04-24T23:11:42.637Z,8.00
2023-04-24T23:14:13.019Z,8.00
2023-04-24T23:16:43.600Z,8.00
2023-04-24T23:19:13.959Z,7.90
2023-04-24T23:21:46.023Z,7.80
2023-04-24T23:24:16.324Z,7.80
2023-04-24T23:26:46.556Z,7.80
2023-04-24T23:29:16.863Z,8.00
2023-04-24T23:31:47.434Z,8.10
2023-04-24T23:34:19.537Z,8.10
2023-04-24T23:36:53.188Z,8.10
2023-04-24T23:39:23.851Z,8.10
2023-04-24T23:41:56.730Z,8.10
2023-04-24T23:44:27.088Z,8.10
2023-04-24T23:46:57.702Z,8.00
2023-04-24T23:49:28.024Z,7.80
2023-04-24T23:52:00.130Z,7.60
2023-04-24T23:54:30.506Z,7.40
2023-04-24T23:57:01.058Z,7.20
2023-04-24T23:59:31.475Z,6.90
